createdAt,value
2023-01-26T00:01:01.910Z,59.70
2023-01-26T00:03:34.348Z,59.33
2023-01-26T00:06:08.549Z,59.27
2023-01-26T00:08:41.931Z,59.42
2023-01-26T00:11:17.282Z,59.20
2023-01-26T00:13:52.744Z,59.26
2023-01-26T00:16:25.521Z,59.22
2023-01-26T00:18:58.049Z,59.29
2023-01-26T00:21:30.336Z,59.33
2023-01-26T00:24:04.792Z,59.45
2023-01-26T00:26:37.411Z,59.55
2023-01-26T00:29:09.774Z,59.41
2023-01-26T00:31:42.257Z,59.40
2023-01-26T00:34:14.581Z,59.51
2023-01-26T00:36:47.159Z,59.65
2023-01-26T00:39:19.902Z,59.60
2023-01-26T00:42:09.591Z,59.42
2023-01-26T00:44:43.286Z,59.33
2023-01-26T00:47:16.584Z,59.42
2023-01-26T00:49:48.902Z,59.48
2023-01-26T00:52:21.192Z,59.38
2023-01-26T00:54:53.348Z,59.70
2023-01-26T00:57:25.603Z,59.69
2023-01-26T00:59:58.258Z,59.65
2023-01-26T01:02:30.607Z,59.72
2023-01-26T01:05:02.917Z,59.75
2023-01-26T01:07:35.312Z,59.67
2023-01-26T01:10:09.097Z,59.55
2023-01-26T01:12:41.419Z,59.87
2023-01-26T01:15:14.053Z,59.78
2023-01-26T01:17:46.436Z,59.71
2023-01-26T01:20:19.309Z,59.75
2023-01-26T01:22:53.953Z,59.72
2023-01-26T01:25:26.390Z,59.78
2023-01-26T01:27:58.777Z,59.85
2023-01-26T01:30:31.080Z,59.67
2023-01-26T01:33:03.360Z,59.72
2023-01-26T01:35:36.429Z,59.86
2023-01-26T01:38:11.463Z,59.79
2023-01-26T01:40:47.162Z,59.86
2023-01-26T01:43:19.671Z,59.81
2023-01-26T01:45:53.384Z,59.89
2023-01-26T01:48:31.451Z,59.66
2023-01-26T01:51:09.676Z,59.96
2023-01-26T01:53:47.590Z,59.69
2023-01-26T01:56:24.926Z,59.83
2023-01-26T01:58:59.680Z,59.74
2023-01-26T02:01:32.551Z,60.09
2023-01-26T02:04:07.111Z,59.75
2023-01-26T02:06:44.989Z,59.97
2023-01-26T02:09:31.539Z,60.15
2023-01-26T02:12:06.227Z,60.11
2023-01-26T02:14:39.501Z,60.12
2023-01-26T02:17:12.086Z,60.55
2023-01-26T02:19:52.232Z,60.42
2023-01-26T02:22:33.209Z,60.30
2023-01-26T02:25:14.275Z,60.60
2023-01-26T02:27:46.652Z,60.65
2023-01-26T02:30:19.984Z,60.73
2023-01-26T02:32:52.611Z,60.95
2023-01-26T02:35:25.081Z,60.92
2023-01-26T02:37:58.061Z,60.88
2023-01-26T02:40:39.545Z,60.71
2023-01-26T02:43:12.552Z,60.82
2023-01-26T02:45:45.541Z,60.84
2023-01-26T02:48:38.006Z,60.80
2023-01-26T02:51:10.665Z,60.82
2023-01-26T02:53:42.977Z,60.97
2023-01-26T02:56:15.349Z,61.03
2023-01-26T02:58:47.593Z,61.07
2023-01-26T03:01:19.965Z,61.08
2023-01-26T03:03:52.255Z,61.22
2023-01-26T03:06:24.412Z,61.17
2023-01-26T03:08:56.843Z,61.17
2023-01-26T03:11:42.171Z,61.20
2023-01-26T03:14:15.957Z,61.12
2023-01-26T03:16:48.277Z,61.17
2023-01-26T03:19:38.374Z,61.18
2023-01-26T03:22:28.921Z,61.25
2023-01-26T03:25:18.520Z,61.11
2023-01-26T03:27:51.513Z,61.40
2023-01-26T03:30:23.939Z,61.34
2023-01-26T03:32:56.518Z,61.39
2023-01-26T03:35:28.835Z,61.28
2023-01-26T03:38:01.150Z,61.29
2023-01-26T03:40:50.769Z,61.46
2023-01-26T03:43:40.672Z,61.37
2023-01-26T03:46:30.852Z,61.20
2023-01-26T03:49:20.849Z,61.42
2023-01-26T03:52:10.711Z,61.57
2023-01-26T03:55:00.770Z,61.50
2023-01-26T03:57:33.360Z,61.62
2023-01-26T04:00:08.005Z,61.60
2023-01-26T04:02:58.041Z,61.74
2023-01-26T04:05:47.998Z,61.75
2023-01-26T04:08:24.092Z,61.73
2023-01-26T04:10:58.127Z,61.83
2023-01-26T04:13:48.080Z,61.85
2023-01-26T04:16:37.787Z,61.99
2023-01-26T04:19:27.288Z,62.02
2023-01-26T04:22:01.838Z,61.93
2023-01-26T04:24:34.203Z,61.85
2023-01-26T04:27:06.753Z,61.88
2023-01-26T04:29:38.984Z,62.05
2023-01-26T04:32:11.297Z,62.09
2023-01-26T04:34:43.617Z,62.03
2023-01-26T04:37:16.047Z,62.07
2023-01-26T04:39:48.276Z,61.97
2023-01-26T04:42:20.599Z,61.82
2023-01-26T04:44:53.218Z,61.83
2023-01-26T04:47:27.591Z,61.92
2023-01-26T04:50:01.286Z,61.98
2023-01-26T04:52:33.662Z,62.08
2023-01-26T04:55:06.686Z,61.77
2023-01-26T04:57:38.979Z,62.08
2023-01-26T05:00:14.279Z,62.06
2023-01-26T05:02:46.840Z,61.98
2023-01-26T05:05:19.411Z,62.06
2023-01-26T05:07:53.428Z,62.09
2023-01-26T05:10:26.039Z,62.15
2023-01-26T05:12:58.682Z,62.12
2023-01-26T05:15:31.018Z,62.28
2023-01-26T05:18:03.861Z,62.29
2023-01-26T05:20:36.533Z,62.23
2023-01-26T05:23:08.840Z,62.24
2023-01-26T05:25:41.753Z,62.37
2023-01-26T05:28:14.140Z,62.17
2023-01-26T05:30:46.648Z,62.18
2023-01-26T05:33:22.156Z,62.38
2023-01-26T05:35:55.532Z,62.45
2023-01-26T05:38:27.997Z,62.45
2023-01-26T05:41:00.682Z,62.49
2023-01-26T05:43:33.017Z,62.48
2023-01-26T05:46:05.418Z,62.19
2023-01-26T05:48:37.905Z,62.44
2023-01-26T05:51:10.256Z,62.35
2023-01-26T05:53:42.546Z,62.40
2023-01-26T05:56:14.964Z,62.36
2023-01-26T05:58:47.261Z,62.32
2023-01-26T06:01:19.616Z,62.33
2023-01-26T06:03:51.941Z,62.78
2023-01-26T06:06:24.213Z,62.67
2023-01-26T06:08:56.505Z,62.55
2023-01-26T06:11:28.849Z,62.60
2023-01-26T06:14:04.137Z,62.37
2023-01-26T06:16:36.502Z,62.68
2023-01-26T06:19:10.750Z,62.64
2023-01-26T06:21:43.254Z,62.64
2023-01-26T06:24:15.832Z,62.54
2023-01-26T06:26:50.639Z,62.64
2023-01-26T06:29:23.006Z,62.72
2023-01-26T06:31:55.248Z,62.74
2023-01-26T06:34:27.820Z,62.68
2023-01-26T06:37:03.029Z,62.80
2023-01-26T06:39:35.635Z,62.82
2023-01-26T06:42:08.981Z,62.64
2023-01-26T06:44:41.339Z,62.90
2023-01-26T06:47:15.094Z,62.99
2023-01-26T06:49:47.406Z,62.84
2023-01-26T06:52:37.235Z,63.02
2023-01-26T06:55:20.297Z,62.90
2023-01-26T06:57:52.681Z,63.07
2023-01-26T07:00:26.156Z,63.17
2023-01-26T07:02:58.573Z,63.35
2023-01-26T07:05:30.970Z,63.56
2023-01-26T07:08:04.502Z,63.23
2023-01-26T07:10:36.931Z,63.25
2023-01-26T07:13:09.435Z,63.42
2023-01-26T07:15:41.701Z,63.57
2023-01-26T07:18:14.044Z,63.53
2023-01-26T07:20:46.259Z,63.66
2023-01-26T07:23:18.522Z,63.55
2023-01-26T07:25:50.831Z,63.62
2023-01-26T07:28:23.537Z,63.79
2023-01-26T07:30:58.544Z,63.61
2023-01-26T07:33:31.654Z,63.80
2023-01-26T07:36:04.323Z,63.72
2023-01-26T07:38:37.362Z,63.54
2023-01-26T07:41:13.763Z,63.74
2023-01-26T07:43:46.165Z,63.45
2023-01-26T07:46:18.581Z,63.73
2023-01-26T07:48:50.932Z,63.76
2023-01-26T07:51:23.696Z,63.91
2023-01-26T07:53:56.096Z,63.88
2023-01-26T07:56:28.548Z,63.96
2023-01-26T07:59:02.891Z,64.01
2023-01-26T08:01:36.199Z,64.01
2023-01-26T08:04:08.568Z,64.38
2023-01-26T08:06:40.885Z,64.32
2023-01-26T08:09:13.755Z,64.51
2023-01-26T08:11:46.190Z,64.51
2023-01-26T08:14:18.730Z,64.61
2023-01-26T08:16:50.959Z,64.66
2023-01-26T08:19:23.397Z,64.64
2023-01-26T08:21:57.789Z,64.63
2023-01-26T08:24:30.593Z,64.93
2023-01-26T08:27:02.884Z,64.93
2023-01-26T08:29:35.207Z,65.05
2023-01-26T08:32:08.343Z,64.89
2023-01-26T08:34:40.839Z,64.89
2023-01-26T08:37:13.112Z,64.97
2023-01-26T08:39:45.535Z,64.86
2023-01-26T08:42:18.093Z,64.84
2023-01-26T08:44:50.522Z,64.97
2023-01-26T08:47:22.775Z,64.89
2023-01-26T08:49:55.120Z,64.94
2023-01-26T08:52:27.461Z,64.91
2023-01-26T08:55:00.696Z,64.80
2023-01-26T08:57:33.130Z,64.78
2023-01-26T09:00:07.426Z,65.10
2023-01-26T09:02:40.302Z,65.02
2023-01-26T09:05:13.443Z,65.01
2023-01-26T09:07:46.740Z,65.07
2023-01-26T09:10:19.464Z,65.27
2023-01-26T09:12:51.975Z,65.17
2023-01-26T09:15:24.278Z,65.16
2023-01-26T09:17:56.565Z,65.15
2023-01-26T09:20:29.615Z,65.15
2023-01-26T09:23:02.075Z,65.30
2023-01-26T09:25:37.267Z,65.18
2023-01-26T09:28:09.581Z,65.36
2023-01-26T09:30:41.982Z,65.25
2023-01-26T09:33:14.341Z,65.34
2023-01-26T09:35:46.699Z,65.51
2023-01-26T09:38:19.043Z,65.46
2023-01-26T09:41:03.852Z,65.56
2023-01-26T09:43:41.680Z,65.42
2023-01-26T09:46:23.814Z,65.49
2023-01-26T09:49:06.697Z,65.46
2023-01-26T09:51:43.223Z,65.57
2023-01-26T09:54:27.819Z,65.32
2023-01-26T09:57:03.895Z,65.43
2023-01-26T09:59:42.902Z,65.27
2023-01-26T10:02:27.448Z,65.42
2023-01-26T10:05:06.005Z,65.36
2023-01-26T10:07:38.455Z,65.45
2023-01-26T10:10:18.230Z,65.58
2023-01-26T10:12:52.100Z,65.66
2023-01-26T10:15:33.230Z,65.72
2023-01-26T10:18:14.104Z,65.62
2023-01-26T10:20:49.800Z,65.85
2023-01-26T10:23:26.982Z,65.89
2023-01-26T10:26:12.330Z,65.98
2023-01-26T10:28:46.789Z,65.90
2023-01-26T10:31:21.809Z,65.99
2023-01-26T10:33:56.827Z,66.36
2023-01-26T10:36:33.109Z,66.17
2023-01-26T10:39:10.369Z,66.19
2023-01-26T10:41:56.754Z,66.26
2023-01-26T10:44:35.562Z,66.40
2023-01-26T10:47:21.612Z,66.34
2023-01-26T10:49:53.893Z,66.40
2023-01-26T10:52:27.365Z,66.37
2023-01-26T10:55:14.220Z,66.42
2023-01-26T10:57:46.966Z,66.44
2023-01-26T11:00:29.122Z,66.65
2023-01-26T11:03:17.824Z,66.48
2023-01-26T11:06:09.582Z,66.63
2023-01-26T11:08:42.637Z,66.63
2023-01-26T11:11:28.457Z,66.62
2023-01-26T11:14:19.434Z,66.66
2023-01-26T11:16:55.800Z,66.71
2023-01-26T11:19:43.651Z,66.86
2023-01-26T11:22:21.028Z,66.84
2023-01-26T11:25:02.010Z,66.74
2023-01-26T11:27:47.585Z,66.96
2023-01-26T11:30:43.346Z,66.98
2023-01-26T11:33:26.987Z,67.00
2023-01-26T11:36:08.475Z,66.89
2023-01-26T11:38:43.437Z,66.87
2023-01-26T11:41:33.354Z,66.86
2023-01-26T11:44:26.974Z,67.01
2023-01-26T11:47:14.740Z,67.15
2023-01-26T11:50:06.372Z,67.01
2023-01-26T11:52:50.242Z,67.19
2023-01-26T11:55:33.045Z,67.19
2023-01-26T11:58:22.153Z,67.11
2023-01-26T12:00:57.743Z,67.18
2023-01-26T12:03:36.716Z,67.27
2023-01-26T12:06:16.919Z,67.33
2023-01-26T12:08:55.061Z,67.33
2023-01-26T12:11:34.612Z,67.25
2023-01-26T12:14:15.787Z,67.36
2023-01-26T12:17:15.596Z,67.27
2023-01-26T12:19:56.053Z,67.41
2023-01-26T12:22:34.405Z,67.44
2023-01-26T12:25:22.476Z,67.45
2023-01-26T12:28:01.425Z,67.43
2023-01-26T12:30:44.519Z,67.52
2023-01-26T12:33:17.192Z,67.47
2023-01-26T12:36:06.260Z,67.58
2023-01-26T12:38:51.112Z,67.60
2023-01-26T12:41:33.610Z,67.61
2023-01-26T12:44:19.715Z,67.75
2023-01-26T12:46:56.281Z,67.77
2023-01-26T12:49:33.869Z,67.93
2023-01-26T12:52:12.986Z,67.80
2023-01-26T12:54:50.651Z,67.76
2023-01-26T12:57:26.814Z,67.78
2023-01-26T13:00:18.840Z,67.82
2023-01-26T13:02:54.432Z,67.81
2023-01-26T13:05:33.826Z,67.75
2023-01-26T13:08:32.961Z,67.73
2023-01-26T13:11:06.853Z,67.77
2023-01-26T13:13:56.482Z,67.84
2023-01-26T13:16:38.128Z,67.87
2023-01-26T13:19:47.080Z,67.97
2023-01-26T13:22:42.458Z,68.14
2023-01-26T13:25:21.593Z,68.22
2023-01-26T13:27:59.882Z,68.17
2023-01-26T13:31:03.949Z,68.21
2023-01-26T13:33:36.598Z,68.27
2023-01-26T13:36:16.178Z,68.40
2023-01-26T13:38:57.086Z,68.47
2023-01-26T13:41:29.482Z,68.50
2023-01-26T13:44:11.548Z,68.45
2023-01-26T13:46:50.660Z,68.46
2023-01-26T13:49:38.395Z,68.70
2023-01-26T13:52:20.179Z,68.64
2023-01-26T13:54:54.813Z,68.74
2023-01-26T13:57:29.425Z,68.76
2023-01-26T14:00:02.757Z,68.83
2023-01-26T14:02:38.904Z,68.76
2023-01-26T14:05:24.460Z,68.80
2023-01-26T14:07:57.532Z,68.73
2023-01-26T14:10:29.855Z,68.79
2023-01-26T14:13:04.397Z,68.86
2023-01-26T14:15:36.712Z,68.89
2023-01-26T14:18:20.099Z,68.91
2023-01-26T14:20:59.046Z,68.86
2023-01-26T14:23:35.532Z,68.97
2023-01-26T14:26:13.673Z,69.00
2023-01-26T14:28:46.996Z,69.20
2023-01-26T14:31:23.714Z,69.13
2023-01-26T14:33:58.986Z,69.12
2023-01-26T14:36:37.108Z,69.19
2023-01-26T14:39:19.659Z,69.31
2023-01-26T14:41:52.383Z,69.21
2023-01-26T14:44:24.726Z,69.24
2023-01-26T14:47:03.035Z,69.35
2023-01-26T14:49:44.143Z,69.44
2023-01-26T14:52:25.699Z,69.42
2023-01-26T14:55:00.365Z,69.33
2023-01-26T14:57:34.384Z,69.40
2023-01-26T15:00:10.592Z,69.44
2023-01-26T15:02:50.208Z,69.42
2023-01-26T15:05:24.678Z,69.56
2023-01-26T15:08:00.900Z,69.48
2023-01-26T15:10:42.418Z,69.43
2023-01-26T15:13:25.581Z,69.54
2023-01-26T15:16:15.971Z,69.56
2023-01-26T15:18:59.101Z,69.54
2023-01-26T15:21:39.692Z,69.57
2023-01-26T15:24:16.453Z,69.70
2023-01-26T15:26:49.809Z,69.74
2023-01-26T15:29:27.532Z,69.66
2023-01-26T15:32:00.672Z,69.58
2023-01-26T15:34:36.863Z,69.63
2023-01-26T15:37:31.103Z,69.69
2023-01-26T15:40:04.460Z,69.81
2023-01-26T15:42:36.844Z,69.64
2023-01-26T15:45:22.844Z,69.90
2023-01-26T15:47:55.125Z,69.86
2023-01-26T15:50:28.487Z,69.89
2023-01-26T15:53:01.094Z,70.11
2023-01-26T15:55:34.754Z,70.05
2023-01-26T15:58:06.997Z,70.07
2023-01-26T16:00:40.487Z,70.22
2023-01-26T16:03:17.376Z,70.25
2023-01-26T16:05:49.970Z,70.38
2023-01-26T16:08:22.733Z,70.48
2023-01-26T16:10:57.180Z,70.56
2023-01-26T16:13:29.688Z,70.49
2023-01-26T16:16:02.022Z,70.41
2023-01-26T16:18:34.720Z,70.42
2023-01-26T16:21:20.814Z,70.56
2023-01-26T16:23:53.399Z,70.58
2023-01-26T16:26:28.959Z,70.74
2023-01-26T16:29:01.473Z,70.75
2023-01-26T16:31:36.732Z,70.81
2023-01-26T16:34:10.876Z,70.83
2023-01-26T16:36:43.227Z,70.95
2023-01-26T16:39:15.677Z,70.90
2023-01-26T16:41:48.001Z,71.02
2023-01-26T16:44:22.162Z,71.11
2023-01-26T16:46:54.321Z,71.17
2023-01-26T16:49:27.025Z,71.11
2023-01-26T16:51:59.456Z,71.12
2023-01-26T16:54:31.772Z,71.17
2023-01-26T16:57:04.194Z,71.31
2023-01-26T16:59:36.383Z,71.35
2023-01-26T17:02:13.319Z,71.29
2023-01-26T17:04:46.102Z,71.41
2023-01-26T17:07:18.866Z,71.38
2023-01-26T17:09:51.705Z,71.29
2023-01-26T17:12:24.095Z,71.50
2023-01-26T17:14:56.863Z,71.48
2023-01-26T17:17:29.399Z,71.60
2023-01-26T17:20:17.647Z,71.45
2023-01-26T17:22:51.592Z,71.46
2023-01-26T17:25:23.933Z,71.70
2023-01-26T17:27:56.248Z,71.57
2023-01-26T17:30:28.560Z,71.67
2023-01-26T17:33:02.091Z,71.67
2023-01-26T17:35:34.495Z,71.71
2023-01-26T17:38:06.697Z,71.63
2023-01-26T17:40:38.962Z,71.64
2023-01-26T17:43:11.317Z,71.73
2023-01-26T17:45:43.836Z,71.76
2023-01-26T17:48:16.193Z,71.73
2023-01-26T17:50:52.221Z,71.80
2023-01-26T17:53:24.540Z,71.83
2023-01-26T17:55:56.777Z,72.00
2023-01-26T17:58:29.003Z,72.08
2023-01-26T18:01:01.311Z,71.90
2023-01-26T18:03:33.772Z,71.96
2023-01-26T18:06:06.758Z,71.95
2023-01-26T18:08:40.173Z,72.00
2023-01-26T18:11:15.125Z,71.97
2023-01-26T18:13:47.696Z,72.08
2023-01-26T18:16:21.872Z,72.13
2023-01-26T18:18:58.798Z,72.08
2023-01-26T18:21:34.235Z,72.01
2023-01-26T18:24:08.678Z,71.95
2023-01-26T18:26:41.299Z,71.90
2023-01-26T18:29:14.951Z,72.01
2023-01-26T18:31:48.099Z,72.03
2023-01-26T18:34:21.328Z,72.14
2023-01-26T18:36:53.806Z,72.05
2023-01-26T18:39:27.842Z,72.16
2023-01-26T18:42:00.321Z,72.16
2023-01-26T18:44:32.806Z,72.13
2023-01-26T18:47:05.738Z,72.07
2023-01-26T18:49:38.018Z,72.08
2023-01-26T18:52:10.330Z,72.07
2023-01-26T18:54:42.771Z,72.10
2023-01-26T18:57:15.490Z,72.06
2023-01-26T18:59:48.309Z,72.06
2023-01-26T19:02:20.693Z,72.11
2023-01-26T19:04:53.780Z,72.09
2023-01-26T19:07:26.133Z,72.11
2023-01-26T19:09:58.450Z,72.14
2023-01-26T19:12:30.753Z,72.07
2023-01-26T19:15:03.219Z,72.12
2023-01-26T19:17:35.489Z,72.32
2023-01-26T19:20:09.692Z,72.20
2023-01-26T19:22:42.021Z,72.25
2023-01-26T19:25:14.375Z,72.30
2023-01-26T19:27:47.240Z,72.35
2023-01-26T19:30:20.619Z,72.37
2023-01-26T19:33:10.827Z,72.27
2023-01-26T19:35:43.474Z,72.35
2023-01-26T19:38:15.753Z,72.33
2023-01-26T19:40:49.986Z,72.48
2023-01-26T19:43:24.041Z,72.35
2023-01-26T19:45:58.690Z,72.40
2023-01-26T19:48:31.301Z,72.35
2023-01-26T19:51:08.389Z,72.43
2023-01-26T19:53:46.219Z,72.50
2023-01-26T19:56:20.493Z,72.28
2023-01-26T19:58:55.426Z,72.41
2023-01-26T20:01:29.831Z,72.41
2023-01-26T20:04:04.796Z,72.40
2023-01-26T20:06:38.133Z,72.33
2023-01-26T20:09:11.097Z,72.41
2023-01-26T20:11:43.496Z,72.46
2023-01-26T20:14:15.767Z,72.32
2023-01-26T20:16:48.091Z,72.31
2023-01-26T20:19:20.806Z,72.22
2023-01-26T20:21:53.220Z,72.26
2023-01-26T20:24:26.647Z,72.25
2023-01-26T20:26:59.057Z,72.37
2023-01-26T20:29:31.378Z,72.39
2023-01-26T20:32:04.263Z,72.32
2023-01-26T20:34:41.001Z,72.43
2023-01-26T20:37:13.666Z,72.35
2023-01-26T20:39:46.974Z,72.36
2023-01-26T20:42:19.673Z,72.43
2023-01-26T20:44:52.082Z,72.42
2023-01-26T20:47:24.464Z,72.37
2023-01-26T20:49:57.226Z,72.45
2023-01-26T20:52:29.579Z,72.46
2023-01-26T20:55:02.721Z,72.44
2023-01-26T20:57:35.403Z,72.48
2023-01-26T21:00:10.404Z,72.47
2023-01-26T21:02:42.779Z,72.42
2023-01-26T21:05:15.336Z,72.44
2023-01-26T21:07:47.608Z,72.66
2023-01-26T21:10:20.283Z,72.43
2023-01-26T21:12:52.633Z,72.55
2023-01-26T21:15:24.985Z,72.49
2023-01-26T21:17:57.261Z,72.47
2023-01-26T21:20:29.647Z,72.55
2023-01-26T21:23:02.025Z,72.52
2023-01-26T21:25:34.469Z,72.71
2023-01-26T21:28:06.881Z,72.62
2023-01-26T21:30:39.338Z,72.53
2023-01-26T21:33:12.237Z,72.67
2023-01-26T21:35:44.532Z,72.59
2023-01-26T21:38:16.785Z,72.60
2023-01-26T21:40:49.214Z,72.52
2023-01-26T21:43:21.718Z,72.49
2023-01-26T21:45:56.130Z,72.45
2023-01-26T21:48:31.788Z,72.55
2023-01-26T21:51:22.208Z,72.54
2023-01-26T21:53:54.652Z,72.59
2023-01-26T21:56:26.997Z,72.57
2023-01-26T21:59:02.805Z,72.66
2023-01-26T22:01:37.717Z,72.66
2023-01-26T22:04:12.487Z,72.65
2023-01-26T22:06:45.381Z,72.65
2023-01-26T22:09:18.798Z,72.75
2023-01-26T22:11:51.801Z,72.74
2023-01-26T22:14:26.307Z,72.82
2023-01-26T22:16:58.609Z,72.83
2023-01-26T22:19:31.004Z,72.73
2023-01-26T22:22:03.796Z,72.82
2023-01-26T22:24:36.011Z,72.87
2023-01-26T22:27:08.868Z,72.93
2023-01-26T22:29:41.308Z,72.84
2023-01-26T22:32:13.756Z,72.96
2023-01-26T22:34:46.157Z,72.84
2023-01-26T22:37:18.462Z,72.81
2023-01-26T22:39:50.861Z,72.75
2023-01-26T22:42:23.908Z,72.79
2023-01-26T22:44:56.400Z,72.83
2023-01-26T22:47:28.732Z,72.78
2023-01-26T22:50:01.368Z,72.81
2023-01-26T22:52:33.742Z,72.84
2023-01-26T22:55:06.588Z,72.59
2023-01-26T22:57:38.896Z,72.82
2023-01-26T23:00:15.048Z,72.67
2023-01-26T23:02:47.917Z,72.88
2023-01-26T23:05:20.402Z,72.79
2023-01-26T23:07:52.565Z,72.91
2023-01-26T23:10:24.828Z,72.87
2023-01-26T23:12:57.313Z,72.80
2023-01-26T23:15:29.621Z,72.81
2023-01-26T23:18:01.891Z,72.86
2023-01-26T23:20:34.286Z,72.82
2023-01-26T23:23:06.453Z,72.82
2023-01-26T23:25:53.891Z,72.84
2023-01-26T23:28:27.989Z,72.78
2023-01-26T23:31:01.358Z,72.81
2023-01-26T23:33:35.036Z,72.66
2023-01-26T23:36:09.575Z,72.71
2023-01-26T23:38:42.250Z,72.55
2023-01-26T23:41:15.495Z,72.65
2023-01-26T23:43:47.887Z,72.49
2023-01-26T23:46:20.310Z,72.65
2023-01-26T23:48:52.526Z,72.70
2023-01-26T23:51:25.014Z,72.97
2023-01-26T23:53:57.379Z,73.05
2023-01-26T23:56:29.802Z,72.72
2023-01-26T23:59:02.492Z,72.91
